sensor_id;sensor_type;location;lat;lon;timestamp;pressure;altitude;pressure_sealevel;temperature;humidity
74722;BME280;63470;49.826;6.740;2023-08-20T00:00:08;100618.95;;;19.32;65.64
74722;BME280;63470;49.826;6.740;2023-08-20T00:02:37;100619.11;;;19.31;65.65
74722;BME280;63470;49.826;6.740;2023-08-20T00:05:12;100615.80;;;19.28;65.61
74722;BME280;63470;49.826;6.740;2023-08-20T00:07:41;100614.98;;;19.24;65.67
74722;BME280;63470;49.826;6.740;2023-08-20T00:10:09;100613.34;;;19.19;65.71
74722;BME280;63470;49.826;6.740;2023-08-20T00:12:39;100606.32;;;19.17;65.74
74722;BME280;63470;49.826;6.740;2023-08-20T00:15:14;100611.41;;;19.14;65.77
74722;BME280;63470;49.826;6.740;2023-08-20T00:17:45;100612.95;;;19.13;65.79
74722;BME280;63470;49.826;6.740;2023-08-20T00:20:14;100613.92;;;19.12;65.75
74722;BME280;63470;49.826;6.740;2023-08-20T00:22:43;100616.95;;;19.12;65.70
74722;BME280;63470;49.826;6.740;2023-08-20T00:25:15;100620.15;;;19.09;65.68
74722;BME280;63470;49.826;6.740;2023-08-20T00:27:46;100617.45;;;19.08;65.76
74722;BME280;63470;49.826;6.740;2023-08-20T00:30:12;100613.79;;;19.11;65.71
74722;BME280;63470;49.826;6.740;2023-08-20T00:32:43;100614.43;;;19.10;65.64
74722;BME280;63470;49.826;6.740;2023-08-20T00:35:13;100617.79;;;19.06;65.75
74722;BME280;63470;49.826;6.740;2023-08-20T00:37:45;100624.02;;;19.01;65.82
74722;BME280;63470;49.826;6.740;2023-08-20T00:40:18;100620.53;;;18.95;65.89
74722;BME280;63470;49.826;6.740;2023-08-20T00:42:45;100623.21;;;18.95;65.86
74722;BME280;63470;49.826;6.740;2023-08-20T00:45:22;100620.11;;;18.95;65.77
74722;BME280;63470;49.826;6.740;2023-08-20T00:47:46;100619.91;;;18.95;65.77
74722;BME280;63470;49.826;6.740;2023-08-20T00:50:16;100622.51;;;18.93;65.80
74722;BME280;63470;49.826;6.740;2023-08-20T00:52:47;100626.05;;;18.92;65.78
74722;BME280;63470;49.826;6.740;2023-08-20T00:55:18;100628.83;;;18.89;65.81
74722;BME280;63470;49.826;6.740;2023-08-20T00:57:48;100630.75;;;18.83;65.83
74722;BME280;63470;49.826;6.740;2023-08-20T01:00:20;100634.26;;;18.78;65.88
74722;BME280;63470;49.826;6.740;2023-08-20T01:02:52;100640.56;;;18.75;65.91
74722;BME280;63470;49.826;6.740;2023-08-20T01:05:25;100634.73;;;18.71;65.96
74722;BME280;63470;49.826;6.740;2023-08-20T01:08:13;100638.80;;;18.70;65.99
74722;BME280;63470;49.826;6.740;2023-08-20T01:12:51;100638.83;;;18.67;65.90
74722;BME280;63470;49.826;6.740;2023-08-20T01:15:23;100640.06;;;18.64;65.89
74722;BME280;63470;49.826;6.740;2023-08-20T01:17:54;100641.84;;;18.59;65.96
74722;BME280;63470;49.826;6.740;2023-08-20T01:20:27;100633.30;;;18.54;66.08
74722;BME280;63470;49.826;6.740;2023-08-20T01:30:25;100644.92;;;18.41;66.16
74722;BME280;63470;49.826;6.740;2023-08-20T01:32:56;100645.01;;;18.40;66.16
74722;BME280;63470;49.826;6.740;2023-08-20T01:35:28;100651.83;;;18.38;66.13
74722;BME280;63470;49.826;6.740;2023-08-20T01:37:55;100650.99;;;18.36;66.13
74722;BME280;63470;49.826;6.740;2023-08-20T01:40:26;100653.77;;;18.33;66.12
74722;BME280;63470;49.826;6.740;2023-08-20T01:42:56;100652.42;;;18.31;66.17
74722;BME280;63470;49.826;6.740;2023-08-20T01:45:31;100652.10;;;18.35;66.13
74722;BME280;63470;49.826;6.740;2023-08-20T01:48:02;100648.67;;;18.37;66.02
74722;BME280;63470;49.826;6.740;2023-08-20T01:50:28;100645.84;;;18.39;66.01
74722;BME280;63470;49.826;6.740;2023-08-20T01:52:58;100645.49;;;18.39;66.01
74722;BME280;63470;49.826;6.740;2023-08-20T01:55:31;100639.15;;;18.41;65.99
74722;BME280;63470;49.826;6.740;2023-08-20T01:58:02;100642.34;;;18.43;65.99
74722;BME280;63470;49.826;6.740;2023-08-20T02:00:34;100644.33;;;18.46;65.94
74722;BME280;63470;49.826;6.740;2023-08-20T02:03:00;100646.35;;;18.46;65.98
74722;BME280;63470;49.826;6.740;2023-08-20T02:05:31;100640.55;;;18.42;66.00
74722;BME280;63470;49.826;6.740;2023-08-20T02:08:01;100642.13;;;18.38;66.09
74722;BME280;63470;49.826;6.740;2023-08-20T02:10:32;100641.41;;;18.37;66.12
74722;BME280;63470;49.826;6.740;2023-08-20T02:13:04;100633.14;;;18.35;66.16
74722;BME280;63470;49.826;6.740;2023-08-20T02:15:33;100643.56;;;18.35;66.13
74722;BME280;63470;49.826;6.740;2023-08-20T02:18:04;100642.16;;;18.35;66.09
74722;BME280;63470;49.826;6.740;2023-08-20T02:20:34;100643.84;;;18.34;66.09
74722;BME280;63470;49.826;6.740;2023-08-20T02:23:04;100643.02;;;18.34;66.05
74722;BME280;63470;49.826;6.740;2023-08-20T02:25:34;100639.56;;;18.29;66.06
74722;BME280;63470;49.826;6.740;2023-08-20T02:28:05;100636.28;;;18.24;66.11
74722;BME280;63470;49.826;6.740;2023-08-20T02:30:43;100629.38;;;18.21;66.15
74722;BME280;63470;49.826;6.740;2023-08-20T02:33:06;100625.76;;;18.20;66.10
74722;BME280;63470;49.826;6.740;2023-08-20T02:35:37;100632.05;;;18.21;66.09
74722;BME280;63470;49.826;6.740;2023-08-20T02:38:10;100638.16;;;18.18;66.12
74722;BME280;63470;49.826;6.740;2023-08-20T02:40:39;100639.49;;;18.16;66.13
74722;BME280;63470;49.826;6.740;2023-08-20T02:43:09;100634.47;;;18.13;66.17
74722;BME280;63470;49.826;6.740;2023-08-20T02:45:40;100640.64;;;18.13;66.18
74722;BME280;63470;49.826;6.740;2023-08-20T02:48:11;100642.62;;;18.14;66.11
74722;BME280;63470;49.826;6.740;2023-08-20T02:50:40;100642.41;;;18.14;66.08
74722;BME280;63470;49.826;6.740;2023-08-20T02:53:11;100646.48;;;18.17;66.07
74722;BME280;63470;49.826;6.740;2023-08-20T02:55:44;100649.48;;;18.20;66.04
74722;BME280;63470;49.826;6.740;2023-08-20T02:58:12;100653.58;;;18.22;66.01
74722;BME280;63470;49.826;6.740;2023-08-20T03:00:45;100653.08;;;18.24;65.97
74722;BME280;63470;49.826;6.740;2023-08-20T03:03:13;100651.98;;;18.30;65.89
74722;BME280;63470;49.826;6.740;2023-08-20T03:05:43;100653.52;;;18.37;65.80
74722;BME280;63470;49.826;6.740;2023-08-20T03:08:14;100656.45;;;18.42;65.74
74722;BME280;63470;49.826;6.740;2023-08-20T03:10:44;100660.14;;;18.48;65.67
74722;BME280;63470;49.826;6.740;2023-08-20T03:13:15;100658.38;;;18.50;65.63
74722;BME280;63470;49.826;6.740;2023-08-20T03:15:50;100658.88;;;18.52;65.59
74722;BME280;63470;49.826;6.740;2023-08-20T03:18:20;100664.34;;;18.55;65.58
74722;BME280;63470;49.826;6.740;2023-08-20T03:20:46;100662.34;;;18.56;65.57
74722;BME280;63470;49.826;6.740;2023-08-20T03:23:16;100669.69;;;18.59;65.53
74722;BME280;63470;49.826;6.740;2023-08-20T03:25:47;100666.05;;;18.62;65.54
74722;BME280;63470;49.826;6.740;2023-08-20T03:28:18;100664.09;;;18.66;65.53
74722;BME280;63470;49.826;6.740;2023-08-20T03:30:48;100663.06;;;18.69;65.50
74722;BME280;63470;49.826;6.740;2023-08-20T03:33:18;100659.84;;;18.72;65.43
74722;BME280;63470;49.826;6.740;2023-08-20T03:35:49;100659.20;;;18.75;65.39
74722;BME280;63470;49.826;6.740;2023-08-20T03:38:22;100658.86;;;18.78;65.33
74722;BME280;63470;49.826;6.740;2023-08-20T03:40:54;100651.39;;;18.80;65.24
74722;BME280;63470;49.826;6.740;2023-08-20T03:43:21;100649.73;;;18.82;65.22
74722;BME280;63470;49.826;6.740;2023-08-20T03:45:52;100650.50;;;18.83;65.29
74722;BME280;63470;49.826;6.740;2023-08-20T03:48:22;100650.41;;;18.85;65.32
74722;BME280;63470;49.826;6.740;2023-08-20T03:50:53;100647.30;;;18.88;65.33
74722;BME280;63470;49.826;6.740;2023-08-20T03:53:23;100656.43;;;18.91;65.29
74722;BME280;63470;49.826;6.740;2023-08-20T03:55:53;100656.92;;;18.93;65.27
74722;BME280;63470;49.826;6.740;2023-08-20T03:58:24;100661.42;;;18.95;65.31
74722;BME280;63470;49.826;6.740;2023-08-20T04:00:55;100661.17;;;18.99;65.26
74722;BME280;63470;49.826;6.740;2023-08-20T04:03:25;100664.66;;;19.02;65.21
74722;BME280;63470;49.826;6.740;2023-08-20T04:05:55;100664.34;;;19.03;65.18
74722;BME280;63470;49.826;6.740;2023-08-20T04:08:26;100671.70;;;19.05;65.17
74722;BME280;63470;49.826;6.740;2023-08-20T04:10:56;100672.36;;;19.07;65.11
74722;BME280;63470;49.826;6.740;2023-08-20T04:13:26;100680.55;;;19.08;65.13
74722;BME280;63470;49.826;6.740;2023-08-20T04:15:57;100679.87;;;19.10;65.12
74722;BME280;63470;49.826;6.740;2023-08-20T04:18:30;100678.05;;;19.13;65.05
74722;BME280;63470;49.826;6.740;2023-08-20T04:20:58;100677.16;;;19.16;64.95
74722;BME280;63470;49.826;6.740;2023-08-20T04:23:29;100681.42;;;19.18;64.90
74722;BME280;63470;49.826;6.740;2023-08-20T04:25:59;100683.68;;;19.20;64.88
74722;BME280;63470;49.826;6.740;2023-08-20T04:28:30;100684.50;;;19.22;64.89
74722;BME280;63470;49.826;6.740;2023-08-20T04:31:05;100683.00;;;19.24;64.85
74722;BME280;63470;49.826;6.740;2023-08-20T04:33:30;100683.98;;;19.25;64.87
74722;BME280;63470;49.826;6.740;2023-08-20T04:36:01;100692.56;;;19.25;64.93
74722;BME280;63470;49.826;6.740;2023-08-20T04:38:31;100692.64;;;19.25;64.97
74722;BME280;63470;49.826;6.740;2023-08-20T04:41:02;100690.15;;;19.23;64.99
74722;BME280;63470;49.826;6.740;2023-08-20T04:43:32;100693.83;;;19.23;65.01
74722;BME280;63470;49.826;6.740;2023-08-20T04:46:03;100691.53;;;19.24;65.01
74722;BME280;63470;49.826;6.740;2023-08-20T04:48:33;100695.95;;;19.27;65.00
74722;BME280;63470;49.826;6.740;2023-08-20T04:51:05;100698.46;;;19.28;64.97
74722;BME280;63470;49.826;6.740;2023-08-20T04:53:37;100695.95;;;19.27;64.98
74722;BME280;63470;49.826;6.740;2023-08-20T04:56:04;100700.55;;;19.26;65.02
74722;BME280;63470;49.826;6.740;2023-08-20T04:58:34;100699.12;;;19.28;65.02
74722;BME280;63470;49.826;6.740;2023-08-20T05:01:08;100704.08;;;19.32;64.91
74722;BME280;63470;49.826;6.740;2023-08-20T05:03:36;100707.25;;;19.35;64.80
74722;BME280;63470;49.826;6.740;2023-08-20T05:06:11;100703.92;;;19.38;64.79
74722;BME280;63470;49.826;6.740;2023-08-20T05:08:36;100701.14;;;19.42;64.77
74722;BME280;63470;49.826;6.740;2023-08-20T05:11:07;100701.63;;;19.44;64.78
74722;BME280;63470;49.826;6.740;2023-08-20T05:13:37;100702.87;;;19.45;64.81
74722;BME280;63470;49.826;6.740;2023-08-20T05:16:08;100707.08;;;19.44;64.78
74722;BME280;63470;49.826;6.740;2023-08-20T05:18:38;100707.08;;;19.39;64.84
74722;BME280;63470;49.826;6.740;2023-08-20T05:21:08;100703.59;;;19.36;64.97
74722;BME280;63470;49.826;6.740;2023-08-20T05:23:41;100707.58;;;19.39;65.03
74722;BME280;63470;49.826;6.740;2023-08-20T05:26:10;100713.84;;;19.43;65.00
74722;BME280;63470;49.826;6.740;2023-08-20T05:28:40;100712.74;;;19.52;64.89
74722;BME280;63470;49.826;6.740;2023-08-20T05:31:11;100719.28;;;19.63;64.78
74722;BME280;63470;49.826;6.740;2023-08-20T05:33:41;100723.36;;;19.78;64.64
74722;BME280;63470;49.826;6.740;2023-08-20T05:36:16;100723.66;;;20.00;64.42
74722;BME280;63470;49.826;6.740;2023-08-20T05:38:44;100720.92;;;20.17;64.27
74722;BME280;63470;49.826;6.740;2023-08-20T05:41:15;100719.06;;;20.36;64.10
74722;BME280;63470;49.826;6.740;2023-08-20T05:43:44;100721.19;;;20.47;63.97
74722;BME280;63470;49.826;6.740;2023-08-20T05:46:14;100725.16;;;20.56;63.80
74722;BME280;63470;49.826;6.740;2023-08-20T05:48:45;100726.21;;;20.59;63.76
74722;BME280;63470;49.826;6.740;2023-08-20T05:51:15;100725.92;;;20.60;64.00
74722;BME280;63470;49.826;6.740;2023-08-20T05:53:46;100727.77;;;20.90;64.08
74722;BME280;63470;49.826;6.740;2023-08-20T05:56:16;100727.77;;;21.42;63.86
74722;BME280;63470;49.826;6.740;2023-08-20T05:58:47;100721.77;;;21.85;63.39
74722;BME280;63470;49.826;6.740;2023-08-20T06:01:17;100722.92;;;22.57;63.06
74722;BME280;63470;49.826;6.740;2023-08-20T06:03:48;100722.94;;;23.10;62.84
74722;BME280;63470;49.826;6.740;2023-08-20T06:06:18;100720.86;;;23.77;62.46
74722;BME280;63470;49.826;6.740;2023-08-20T06:08:49;100718.45;;;24.53;62.06
74722;BME280;63470;49.826;6.740;2023-08-20T06:11:20;100715.92;;;25.26;61.62
74722;BME280;63470;49.826;6.740;2023-08-20T06:13:50;100721.38;;;25.42;61.61
74722;BME280;63470;49.826;6.740;2023-08-20T06:16:21;100717.33;;;25.60;61.60
74722;BME280;63470;49.826;6.740;2023-08-20T06:18:51;100712.71;;;25.89;61.79
74722;BME280;63470;49.826;6.740;2023-08-20T06:21:21;100717.48;;;26.38;61.87
74722;BME280;63470;49.826;6.740;2023-08-20T06:23:52;100712.52;;;26.61;61.98
74722;BME280;63470;49.826;6.740;2023-08-20T06:26:22;100717.39;;;26.82;62.30
74722;BME280;63470;49.826;6.740;2023-08-20T06:28:53;100716.58;;;27.20;62.18
74722;BME280;63470;49.826;6.740;2023-08-20T06:31:24;100718.85;;;27.52;61.99
74722;BME280;63470;49.826;6.740;2023-08-20T06:33:54;100714.62;;;27.87;61.76
74722;BME280;63470;49.826;6.740;2023-08-20T06:36:25;100716.36;;;27.79;62.45
74722;BME280;63470;49.826;6.740;2023-08-20T06:38:55;100716.86;;;27.40;63.61
74722;BME280;63470;49.826;6.740;2023-08-20T06:41:29;100715.50;;;27.33;63.85
74722;BME280;63470;49.826;6.740;2023-08-20T06:43:56;100719.17;;;27.36;63.33
74722;BME280;63470;49.826;6.740;2023-08-20T06:46:27;100714.87;;;26.79;64.45
74722;BME280;63470;49.826;6.740;2023-08-20T06:48:57;100712.83;;;26.58;64.65
74722;BME280;63470;49.826;6.740;2023-08-20T06:51:29;100721.40;;;26.29;64.85
74722;BME280;63470;49.826;6.740;2023-08-20T06:53:58;100723.25;;;25.77;65.68
74722;BME280;63470;49.826;6.740;2023-08-20T06:56:29;100726.45;;;25.49;65.64
74722;BME280;63470;49.826;6.740;2023-08-20T06:59:00;100729.52;;;25.17;66.00
74722;BME280;63470;49.826;6.740;2023-08-20T07:01:30;100730.78;;;25.05;66.06
74722;BME280;63470;49.826;6.740;2023-08-20T07:04:00;100727.67;;;24.96;65.58
74722;BME280;63470;49.826;6.740;2023-08-20T07:06:31;100728.66;;;24.78;65.72
74722;BME280;63470;49.826;6.740;2023-08-20T07:09:01;100721.72;;;24.77;65.56
74722;BME280;63470;49.826;6.740;2023-08-20T07:11:31;100722.86;;;24.76;65.20
74722;BME280;63470;49.826;6.740;2023-08-20T07:14:03;100725.91;;;24.67;65.03
74722;BME280;63470;49.826;6.740;2023-08-20T07:16:32;100726.27;;;24.62;64.82
74722;BME280;63470;49.826;6.740;2023-08-20T07:19:03;100731.72;;;24.53;64.73
74722;BME280;63470;49.826;6.740;2023-08-20T07:21:33;100730.01;;;24.46;64.74
74722;BME280;63470;49.826;6.740;2023-08-20T07:24:04;100727.28;;;24.41;64.89
74722;BME280;63470;49.826;6.740;2023-08-20T07:26:35;100722.48;;;24.44;64.72
74722;BME280;63470;49.826;6.740;2023-08-20T07:29:05;100724.78;;;24.40;64.78
74722;BME280;63470;49.826;6.740;2023-08-20T07:31:36;100722.58;;;24.43;64.50
74722;BME280;63470;49.826;6.740;2023-08-20T07:34:06;100716.02;;;24.49;64.31
74722;BME280;63470;49.826;6.740;2023-08-20T07:36:37;100717.50;;;24.41;64.40
74722;BME280;63470;49.826;6.740;2023-08-20T07:39:07;100715.42;;;24.49;64.14
74722;BME280;63470;49.826;6.740;2023-08-20T07:41:37;100721.14;;;24.56;63.96
74722;BME280;63470;49.826;6.740;2023-08-20T07:44:08;100722.00;;;24.67;63.79
74722;BME280;63470;49.826;6.740;2023-08-20T07:46:38;100724.66;;;24.68;63.82
74722;BME280;63470;49.826;6.740;2023-08-20T07:49:09;100723.22;;;24.80;63.67
74722;BME280;63470;49.826;6.740;2023-08-20T07:51:39;100724.43;;;24.94;63.44
74722;BME280;63470;49.826;6.740;2023-08-20T07:54:10;100721.52;;;25.00;63.26
74722;BME280;63470;49.826;6.740;2023-08-20T07:56:40;100722.23;;;25.09;63.10
74722;BME280;63470;49.826;6.740;2023-08-20T07:59:11;100720.14;;;25.23;62.90
74722;BME280;63470;49.826;6.740;2023-08-20T08:01:41;100720.24;;;25.30;62.81
74722;BME280;63470;49.826;6.740;2023-08-20T08:04:11;100711.33;;;25.43;62.78
74722;BME280;63470;49.826;6.740;2023-08-20T08:06:42;100717.56;;;25.57;62.63
74722;BME280;63470;49.826;6.740;2023-08-20T08:09:27;100717.71;;;25.69;62.51
74722;BME280;63470;49.826;6.740;2023-08-20T08:11:43;100721.56;;;25.85;62.32
74722;BME280;63470;49.826;6.740;2023-08-20T08:14:14;100726.79;;;26.02;62.21
74722;BME280;63470;49.826;6.740;2023-08-20T08:16:45;100731.54;;;26.22;62.01
74722;BME280;63470;49.826;6.740;2023-08-20T08:19:15;100734.19;;;26.43;61.81
74722;BME280;63470;49.826;6.740;2023-08-20T08:21:46;100730.55;;;26.58;61.38
74722;BME280;63470;49.826;6.740;2023-08-20T08:24:15;100733.25;;;26.66;61.36
74722;BME280;63470;49.826;6.740;2023-08-20T08:26:46;100740.02;;;26.77;61.30
74722;BME280;63470;49.826;6.740;2023-08-20T08:29:16;100732.55;;;27.06;60.97
74722;BME280;63470;49.826;6.740;2023-08-20T08:31:47;100736.84;;;27.60;60.18
74722;BME280;63470;49.826;6.740;2023-08-20T08:34:18;100729.95;;;28.06;59.76
74722;BME280;63470;49.826;6.740;2023-08-20T08:36:48;100729.94;;;28.76;58.69
74722;BME280;63470;49.826;6.740;2023-08-20T08:39:18;100726.19;;;29.44;57.60
74722;BME280;63470;49.826;6.740;2023-08-20T08:41:51;100724.58;;;30.24;56.05
74722;BME280;63470;49.826;6.740;2023-08-20T08:44:19;100715.23;;;31.13;54.79
74722;BME280;63470;49.826;6.740;2023-08-20T08:46:49;100718.62;;;32.02;54.19
74722;BME280;63470;49.826;6.740;2023-08-20T08:49:20;100718.00;;;32.53;54.24
74722;BME280;63470;49.826;6.740;2023-08-20T08:51:50;100718.44;;;33.05;54.19
74722;BME280;63470;49.826;6.740;2023-08-20T08:54:21;100720.28;;;33.44;54.24
74722;BME280;63470;49.826;6.740;2023-08-20T08:56:51;100717.33;;;33.85;54.09
74722;BME280;63470;49.826;6.740;2023-08-20T08:59:22;100713.27;;;34.19;54.34
74722;BME280;63470;49.826;6.740;2023-08-20T09:01:52;100704.88;;;34.54;54.39
74722;BME280;63470;49.826;6.740;2023-08-20T09:04:23;100704.77;;;34.80;54.71
74722;BME280;63470;49.826;6.740;2023-08-20T09:06:55;100696.83;;;35.13;54.78
74722;BME280;63470;49.826;6.740;2023-08-20T09:09:29;100697.38;;;35.31;55.01
74722;BME280;63470;49.826;6.740;2023-08-20T09:11:54;100701.84;;;35.34;55.35
74722;BME280;63470;49.826;6.740;2023-08-20T09:14:29;100693.52;;;35.31;55.75
74722;BME280;63470;49.826;6.740;2023-08-20T09:17:01;100690.88;;;35.21;56.22
74722;BME280;63470;49.826;6.740;2023-08-20T09:19:35;100685.85;;;35.28;56.55
74722;BME280;63470;49.826;6.740;2023-08-20T09:22:00;100682.82;;;35.40;56.63
74722;BME280;63470;49.826;6.740;2023-08-20T09:24:40;100689.60;;;35.57;56.51
74722;BME280;63470;49.826;6.740;2023-08-20T09:27:03;100688.32;;;35.28;57.13
74722;BME280;63470;49.826;6.740;2023-08-20T09:29:31;100688.14;;;35.08;57.58
74722;BME280;63470;49.826;6.740;2023-08-20T09:32:00;100686.27;;;35.14;57.67
74722;BME280;63470;49.826;6.740;2023-08-20T09:34:37;100685.61;;;34.99;58.02
74722;BME280;63470;49.826;6.740;2023-08-20T09:37:01;100685.83;;;34.76;58.53
74722;BME280;63470;49.826;6.740;2023-08-20T09:39:31;100687.95;;;34.74;58.48
74722;BME280;63470;49.826;6.740;2023-08-20T09:42:02;100684.19;;;35.15;58.00
74722;BME280;63470;49.826;6.740;2023-08-20T09:44:33;100682.02;;;35.64;57.38
74722;BME280;63470;49.826;6.740;2023-08-20T09:47:06;100685.70;;;35.88;57.09
74722;BME280;63470;49.826;6.740;2023-08-20T09:49:42;100682.59;;;36.07;57.00
74722;BME280;63470;49.826;6.740;2023-08-20T09:52:09;100682.48;;;36.51;56.50
74722;BME280;63470;49.826;6.740;2023-08-20T09:55:07;100681.06;;;36.80;56.19
74722;BME280;63470;49.826;6.740;2023-08-20T09:57:07;100681.02;;;36.99;56.00
74722;BME280;63470;49.826;6.740;2023-08-20T09:59:37;100686.19;;;36.87;56.19
74722;BME280;63470;49.826;6.740;2023-08-20T10:02:07;100686.47;;;36.68;56.71
74722;BME280;63470;49.826;6.740;2023-08-20T10:04:36;100685.81;;;36.61;56.97
74722;BME280;63470;49.826;6.740;2023-08-20T10:07:07;100685.24;;;36.72;56.75
74722;BME280;63470;49.826;6.740;2023-08-20T10:09:39;100685.30;;;36.58;57.11
74722;BME280;63470;49.826;6.740;2023-08-20T10:12:08;100683.48;;;36.78;56.70
74722;BME280;63470;49.826;6.740;2023-08-20T10:14:39;100687.52;;;36.85;56.46
74722;BME280;63470;49.826;6.740;2023-08-20T10:17:11;100689.53;;;36.88;56.50
74722;BME280;63470;49.826;6.740;2023-08-20T10:19:40;100687.77;;;36.91;56.60
74722;BME280;63470;49.826;6.740;2023-08-20T10:22:12;100689.73;;;36.89;56.69
74722;BME280;63470;49.826;6.740;2023-08-20T10:24:47;100686.69;;;37.05;56.27
74722;BME280;63470;49.826;6.740;2023-08-20T10:27:12;100687.58;;;36.93;56.46
74722;BME280;63470;49.826;6.740;2023-08-20T10:29:45;100688.02;;;37.14;56.16
74722;BME280;63470;49.826;6.740;2023-08-20T10:32:13;100684.20;;;37.52;55.63
74722;BME280;63470;49.826;6.740;2023-08-20T10:34:50;100680.69;;;37.77;55.30
74722;BME280;63470;49.826;6.740;2023-08-20T10:37:15;100678.20;;;37.97;55.20
74722;BME280;63470;49.826;6.740;2023-08-20T10:39:55;100679.77;;;38.15;54.83
74722;BME280;63470;49.826;6.740;2023-08-20T10:42:23;100681.64;;;38.20;54.66
74722;BME280;63470;49.826;6.740;2023-08-20T10:45:05;100680.19;;;38.16;54.77
74722;BME280;63470;49.826;6.740;2023-08-20T10:47:17;100681.52;;;38.00;55.00
74722;BME280;63470;49.826;6.740;2023-08-20T10:49:51;100677.18;;;37.76;55.45
74722;BME280;63470;49.826;6.740;2023-08-20T10:52:18;100678.91;;;37.71;55.65
74722;BME280;63470;49.826;6.740;2023-08-20T10:54:51;100677.12;;;37.84;55.50
74722;BME280;63470;49.826;6.740;2023-08-20T10:57:36;100672.73;;;37.98;55.19
74722;BME280;63470;49.826;6.740;2023-08-20T10:59:58;100673.30;;;38.03;55.16
74722;BME280;63470;49.826;6.740;2023-08-20T11:02:20;100678.73;;;38.36;54.78
74722;BME280;63470;49.826;6.740;2023-08-20T11:04:51;100672.12;;;38.55;54.47
74722;BME280;63470;49.826;6.740;2023-08-20T11:07:21;100670.23;;;38.71;54.42
74722;BME280;63470;49.826;6.740;2023-08-20T11:09:51;100666.55;;;38.62;54.62
74722;BME280;63470;49.826;6.740;2023-08-20T11:12:22;100669.31;;;38.60;54.72
74722;BME280;63470;49.826;6.740;2023-08-20T11:14:52;100670.26;;;38.21;55.30
74722;BME280;63470;49.826;6.740;2023-08-20T11:17:23;100666.86;;;37.93;55.84
74722;BME280;63470;49.826;6.740;2023-08-20T11:19:54;100671.48;;;37.80;56.08
74722;BME280;63470;49.826;6.740;2023-08-20T11:22:25;100670.08;;;37.74;56.27
74722;BME280;63470;49.826;6.740;2023-08-20T11:24:56;100667.75;;;37.81;56.08
74722;BME280;63470;49.826;6.740;2023-08-20T11:27:27;100666.93;;;37.86;55.97
74722;BME280;63470;49.826;6.740;2023-08-20T11:30:00;100667.33;;;37.93;55.84
74722;BME280;63470;49.826;6.740;2023-08-20T11:32:27;100665.45;;;38.16;55.51
74722;BME280;63470;49.826;6.740;2023-08-20T11:34:58;100662.50;;;38.21;55.26
74722;BME280;63470;49.826;6.740;2023-08-20T11:37:31;100661.89;;;38.20;55.23
74722;BME280;63470;49.826;6.740;2023-08-20T11:39:59;100658.77;;;38.21;55.10
74722;BME280;63470;49.826;6.740;2023-08-20T11:42:31;100659.81;;;38.16;55.25
74722;BME280;63470;49.826;6.740;2023-08-20T11:45:00;100654.70;;;38.40;54.86
74722;BME280;63470;49.826;6.740;2023-08-20T11:47:41;100650.41;;;38.42;54.79
74722;BME280;63470;49.826;6.740;2023-08-20T11:50:02;100647.73;;;38.58;54.51
74722;BME280;63470;49.826;6.740;2023-08-20T11:52:33;100647.48;;;38.67;54.35
74722;BME280;63470;49.826;6.740;2023-08-20T11:55:03;100646.50;;;38.54;54.54
74722;BME280;63470;49.826;6.740;2023-08-20T11:57:32;100642.45;;;38.51;54.67
74722;BME280;63470;49.826;6.740;2023-08-20T12:00:06;100640.55;;;38.55;54.57
74722;BME280;63470;49.826;6.740;2023-08-20T12:02:34;100638.46;;;38.77;54.18
74722;BME280;63470;49.826;6.740;2023-08-20T12:05:05;100639.80;;;38.88;54.02
74722;BME280;63470;49.826;6.740;2023-08-20T12:07:35;100638.88;;;39.02;53.91
74722;BME280;63470;49.826;6.740;2023-08-20T12:10:20;100634.77;;;39.28;53.52
74722;BME280;63470;49.826;6.740;2023-08-20T12:12:35;100634.86;;;39.36;53.37
74722;BME280;63470;49.826;6.740;2023-08-20T12:15:06;100634.45;;;39.10;53.62
74722;BME280;63470;49.826;6.740;2023-08-20T12:17:36;100629.16;;;39.21;53.41
74722;BME280;63470;49.826;6.740;2023-08-20T12:20:13;100627.10;;;39.37;53.25
74722;BME280;63470;49.826;6.740;2023-08-20T12:22:40;100624.58;;;39.19;53.41
74722;BME280;63470;49.826;6.740;2023-08-20T12:25:08;100623.06;;;38.56;54.38
74722;BME280;63470;49.826;6.740;2023-08-20T12:27:38;100624.89;;;38.13;54.96
74722;BME280;63470;49.826;6.740;2023-08-20T12:30:10;100618.39;;;38.05;54.86
74722;BME280;63470;49.826;6.740;2023-08-20T12:32:40;100613.09;;;38.04;54.61
74722;BME280;63470;49.826;6.740;2023-08-20T12:35:10;100613.17;;;38.31;54.18
74722;BME280;63470;49.826;6.740;2023-08-20T12:37:41;100606.53;;;38.46;53.95
74722;BME280;63470;49.826;6.740;2023-08-20T12:40:13;100605.54;;;38.82;53.39
74722;BME280;63470;49.826;6.740;2023-08-20T12:42:43;100608.20;;;38.91;53.12
74722;BME280;63470;49.826;6.740;2023-08-20T12:45:14;100603.27;;;38.94;53.04
74722;BME280;63470;49.826;6.740;2023-08-20T12:47:43;100601.39;;;38.71;53.50
74722;BME280;63470;49.826;6.740;2023-08-20T12:50:15;100600.92;;;38.55;53.68
74722;BME280;63470;49.826;6.740;2023-08-20T12:52:44;100598.23;;;38.39;53.76
74722;BME280;63470;49.826;6.740;2023-08-20T12:55:15;100599.95;;;38.44;53.38
74722;BME280;63470;49.826;6.740;2023-08-20T12:57:52;100600.53;;;38.65;52.54
74722;BME280;63470;49.826;6.740;2023-08-20T13:00:17;100597.28;;;38.44;52.39
74722;BME280;63470;49.826;6.740;2023-08-20T13:02:47;100591.98;;;38.10;52.57
74722;BME280;63470;49.826;6.740;2023-08-20T13:05:19;100598.71;;;38.19;51.82
74722;BME280;63470;49.826;6.740;2023-08-20T13:07:49;100597.08;;;38.28;51.10
74722;BME280;63470;49.826;6.740;2023-08-20T13:10:20;100599.61;;;38.23;50.68
74722;BME280;63470;49.826;6.740;2023-08-20T13:12:53;100602.11;;;38.25;50.38
74722;BME280;63470;49.826;6.740;2023-08-20T13:15:22;100598.29;;;38.36;50.03